<?xml version="1.0" encoding="UTF-8" standalone="no" ?>
<gpx xmlns="http://www.topografix.com/GPX/1/1" xmlns:xsi="http://www.w3.org/2001/XMLSchema-instance" xsi:schemaLocation="http://www.topografix.com/GPX/1/1 http://www.topografix.com/GPX/1/1/gpx.xsd" version="1.1" creator="VisuGPX - https://www.visugpx.com">
  <metadata>
    <name>entrainement avec Françoise N°7</name>
    <desc><![CDATA[Première sortie avec Ludivine et Françoise par le parcours au dessus du camping]]></desc>
  </metadata>
  <wpt lat="47.54121" lon="7.17077">
    <ele>367</ele>
    <name><![CDATA[0000046]]></name>
  </wpt>
  <wpt lat="47.54105" lon="7.171">
    <ele>367</ele>
    <name><![CDATA[0000047]]></name>
  </wpt>
  <trk>
    <name><![CDATA[2018-04-13 12:04]]></name>
    <trkseg>
      <trkpt lat="47.54121" lon="7.17077">
        <ele>367</ele>
        <time>2018-04-13T10:04:46Z</time>
      </trkpt>
      <trkpt lat="47.54106" lon="7.17096">
        <ele>367</ele>
        <time>2018-04-13T10:05:02Z</time>
      </trkpt>
      <trkpt lat="47.54085" lon="7.17103">
        <ele>367</ele>
        <time>2018-04-13T10:05:20Z</time>
      </trkpt>
      <trkpt lat="47.5407" lon="7.1712">
        <ele>369</ele>
        <time>2018-04-13T10:05:30Z</time>
      </trkpt>
      <trkpt lat="47.54059" lon="7.17143">
        <ele>370</ele>
        <time>2018-04-13T10:05:40Z</time>
      </trkpt>
      <trkpt lat="47.54049" lon="7.17166">
        <ele>370</ele>
        <time>2018-04-13T10:05:50Z</time>
      </trkpt>
      <trkpt lat="47.54036" lon="7.17187">
        <ele>370</ele>
        <time>2018-04-13T10:06:02Z</time>
      </trkpt>
      <trkpt lat="47.54024" lon="7.17209">
        <ele>370</ele>
        <time>2018-04-13T10:06:12Z</time>
      </trkpt>
      <trkpt lat="47.5401" lon="7.17234">
        <ele>370</ele>
        <time>2018-04-13T10:06:24Z</time>
      </trkpt>
      <trkpt lat="47.53993" lon="7.17252">
        <ele>370</ele>
        <time>2018-04-13T10:06:36Z</time>
      </trkpt>
      <trkpt lat="47.53976" lon="7.17236">
        <ele>372</ele>
        <time>2018-04-13T10:06:48Z</time>
      </trkpt>
      <trkpt lat="47.53958" lon="7.17225">
        <ele>373</ele>
        <time>2018-04-13T10:06:58Z</time>
      </trkpt>
      <trkpt lat="47.53938" lon="7.1723">
        <ele>373</ele>
        <time>2018-04-13T10:07:12Z</time>
      </trkpt>
      <trkpt lat="47.53926" lon="7.17252">
        <ele>372</ele>
        <time>2018-04-13T10:07:22Z</time>
      </trkpt>
      <trkpt lat="47.53913" lon="7.17272">
        <ele>374</ele>
        <time>2018-04-13T10:07:32Z</time>
      </trkpt>
      <trkpt lat="47.539" lon="7.17294">
        <ele>374</ele>
        <time>2018-04-13T10:07:44Z</time>
      </trkpt>
      <trkpt lat="47.53887" lon="7.17319">
        <ele>374</ele>
        <time>2018-04-13T10:07:56Z</time>
      </trkpt>
      <trkpt lat="47.53875" lon="7.17346">
        <ele>374</ele>
        <time>2018-04-13T10:08:08Z</time>
      </trkpt>
      <trkpt lat="47.53865" lon="7.1737">
        <ele>374</ele>
        <time>2018-04-13T10:08:18Z</time>
      </trkpt>
      <trkpt lat="47.53872" lon="7.17396">
        <ele>374</ele>
        <time>2018-04-13T10:08:32Z</time>
      </trkpt>
      <trkpt lat="47.53891" lon="7.17411">
        <ele>373</ele>
        <time>2018-04-13T10:08:44Z</time>
      </trkpt>
      <trkpt lat="47.53903" lon="7.17435">
        <ele>373</ele>
        <time>2018-04-13T10:08:56Z</time>
      </trkpt>
      <trkpt lat="47.53914" lon="7.17459">
        <ele>373</ele>
        <time>2018-04-13T10:09:06Z</time>
      </trkpt>
      <trkpt lat="47.53924" lon="7.17481">
        <ele>371</ele>
        <time>2018-04-13T10:09:16Z</time>
      </trkpt>
      <trkpt lat="47.53936" lon="7.17506">
        <ele>372</ele>
        <time>2018-04-13T10:09:34Z</time>
      </trkpt>
      <trkpt lat="47.5395" lon="7.17529">
        <ele>371</ele>
        <time>2018-04-13T10:09:46Z</time>
      </trkpt>
      <trkpt lat="47.53964" lon="7.17549">
        <ele>372</ele>
        <time>2018-04-13T10:09:56Z</time>
      </trkpt>
      <trkpt lat="47.53978" lon="7.1757">
        <ele>372</ele>
        <time>2018-04-13T10:10:06Z</time>
      </trkpt>
      <trkpt lat="47.53993" lon="7.17591">
        <ele>372</ele>
        <time>2018-04-13T10:10:18Z</time>
      </trkpt>
      <trkpt lat="47.54006" lon="7.17611">
        <ele>373</ele>
        <time>2018-04-13T10:10:28Z</time>
      </trkpt>
      <trkpt lat="47.5402" lon="7.17629">
        <ele>373</ele>
        <time>2018-04-13T10:10:38Z</time>
      </trkpt>
      <trkpt lat="47.54036" lon="7.17648">
        <ele>374</ele>
        <time>2018-04-13T10:10:48Z</time>
      </trkpt>
      <trkpt lat="47.54052" lon="7.17669">
        <ele>376</ele>
        <time>2018-04-13T10:11:00Z</time>
      </trkpt>
      <trkpt lat="47.5406" lon="7.17694">
        <ele>377</ele>
        <time>2018-04-13T10:11:12Z</time>
      </trkpt>
      <trkpt lat="47.54074" lon="7.17717">
        <ele>378</ele>
        <time>2018-04-13T10:11:24Z</time>
      </trkpt>
      <trkpt lat="47.54076" lon="7.17745">
        <ele>381</ele>
        <time>2018-04-13T10:11:38Z</time>
      </trkpt>
      <trkpt lat="47.5406" lon="7.17766">
        <ele>382</ele>
        <time>2018-04-13T10:11:50Z</time>
      </trkpt>
      <trkpt lat="47.54048" lon="7.17788">
        <ele>382</ele>
        <time>2018-04-13T10:12:00Z</time>
      </trkpt>
      <trkpt lat="47.54039" lon="7.17811">
        <ele>382</ele>
        <time>2018-04-13T10:12:10Z</time>
      </trkpt>
      <trkpt lat="47.54028" lon="7.1784">
        <ele>386</ele>
        <time>2018-04-13T10:12:22Z</time>
      </trkpt>
      <trkpt lat="47.5402" lon="7.17866">
        <ele>387</ele>
        <time>2018-04-13T10:12:32Z</time>
      </trkpt>
      <trkpt lat="47.54014" lon="7.17893">
        <ele>388</ele>
        <time>2018-04-13T10:12:42Z</time>
      </trkpt>
      <trkpt lat="47.54007" lon="7.17922">
        <ele>389</ele>
        <time>2018-04-13T10:12:56Z</time>
      </trkpt>
      <trkpt lat="47.54007" lon="7.17955">
        <ele>393</ele>
        <time>2018-04-13T10:13:08Z</time>
      </trkpt>
      <trkpt lat="47.54015" lon="7.1798">
        <ele>394</ele>
        <time>2018-04-13T10:13:18Z</time>
      </trkpt>
      <trkpt lat="47.54025" lon="7.18005">
        <ele>396</ele>
        <time>2018-04-13T10:13:28Z</time>
      </trkpt>
      <trkpt lat="47.54032" lon="7.18031">
        <ele>398</ele>
        <time>2018-04-13T10:13:38Z</time>
      </trkpt>
      <trkpt lat="47.54044" lon="7.18053">
        <ele>399</ele>
        <time>2018-04-13T10:13:48Z</time>
      </trkpt>
      <trkpt lat="47.54057" lon="7.18071">
        <ele>400</ele>
        <time>2018-04-13T10:13:58Z</time>
      </trkpt>
      <trkpt lat="47.54071" lon="7.18093">
        <ele>401</ele>
        <time>2018-04-13T10:14:10Z</time>
      </trkpt>
      <trkpt lat="47.54085" lon="7.18116">
        <ele>404</ele>
        <time>2018-04-13T10:14:22Z</time>
      </trkpt>
      <trkpt lat="47.54097" lon="7.18138">
        <ele>404</ele>
        <time>2018-04-13T10:14:36Z</time>
      </trkpt>
      <trkpt lat="47.54113" lon="7.18153">
        <ele>405</ele>
        <time>2018-04-13T10:14:48Z</time>
      </trkpt>
      <trkpt lat="47.5413" lon="7.1817">
        <ele>405</ele>
        <time>2018-04-13T10:14:58Z</time>
      </trkpt>
      <trkpt lat="47.54147" lon="7.18188">
        <ele>406</ele>
        <time>2018-04-13T10:15:10Z</time>
      </trkpt>
      <trkpt lat="47.54159" lon="7.18209">
        <ele>406</ele>
        <time>2018-04-13T10:15:18Z</time>
      </trkpt>
      <trkpt lat="47.54173" lon="7.18231">
        <ele>408</ele>
        <time>2018-04-13T10:15:32Z</time>
      </trkpt>
      <trkpt lat="47.54185" lon="7.18257">
        <ele>407</ele>
        <time>2018-04-13T10:15:44Z</time>
      </trkpt>
      <trkpt lat="47.54196" lon="7.1828">
        <ele>407</ele>
        <time>2018-04-13T10:15:54Z</time>
      </trkpt>
      <trkpt lat="47.54207" lon="7.18306">
        <ele>406</ele>
        <time>2018-04-13T10:16:04Z</time>
      </trkpt>
      <trkpt lat="47.54218" lon="7.18332">
        <ele>406</ele>
        <time>2018-04-13T10:16:14Z</time>
      </trkpt>
      <trkpt lat="47.54229" lon="7.18357">
        <ele>405</ele>
        <time>2018-04-13T10:16:24Z</time>
      </trkpt>
      <trkpt lat="47.54238" lon="7.18384">
        <ele>405</ele>
        <time>2018-04-13T10:16:34Z</time>
      </trkpt>
      <trkpt lat="47.54245" lon="7.18411">
        <ele>404</ele>
        <time>2018-04-13T10:16:44Z</time>
      </trkpt>
      <trkpt lat="47.54244" lon="7.18441">
        <ele>405</ele>
        <time>2018-04-13T10:16:56Z</time>
      </trkpt>
      <trkpt lat="47.54241" lon="7.18469">
        <ele>406</ele>
        <time>2018-04-13T10:17:06Z</time>
      </trkpt>
      <trkpt lat="47.54243" lon="7.18497">
        <ele>405</ele>
        <time>2018-04-13T10:17:16Z</time>
      </trkpt>
      <trkpt lat="47.54256" lon="7.18518">
        <ele>405</ele>
        <time>2018-04-13T10:17:26Z</time>
      </trkpt>
      <trkpt lat="47.54269" lon="7.18539">
        <ele>406</ele>
        <time>2018-04-13T10:17:38Z</time>
      </trkpt>
      <trkpt lat="47.54282" lon="7.18563">
        <ele>406</ele>
        <time>2018-04-13T10:17:50Z</time>
      </trkpt>
      <trkpt lat="47.54296" lon="7.18589">
        <ele>407</ele>
        <time>2018-04-13T10:18:02Z</time>
      </trkpt>
      <trkpt lat="47.54309" lon="7.18609">
        <ele>407</ele>
        <time>2018-04-13T10:18:12Z</time>
      </trkpt>
      <trkpt lat="47.54322" lon="7.1863">
        <ele>408</ele>
        <time>2018-04-13T10:18:22Z</time>
      </trkpt>
      <trkpt lat="47.54336" lon="7.18653">
        <ele>408</ele>
        <time>2018-04-13T10:18:34Z</time>
      </trkpt>
      <trkpt lat="47.54349" lon="7.18674">
        <ele>408</ele>
        <time>2018-04-13T10:18:46Z</time>
      </trkpt>
      <trkpt lat="47.54365" lon="7.18694">
        <ele>409</ele>
        <time>2018-04-13T10:18:56Z</time>
      </trkpt>
      <trkpt lat="47.5438" lon="7.18717">
        <ele>409</ele>
        <time>2018-04-13T10:19:08Z</time>
      </trkpt>
      <trkpt lat="47.54392" lon="7.18738">
        <ele>409</ele>
        <time>2018-04-13T10:19:20Z</time>
      </trkpt>
      <trkpt lat="47.54402" lon="7.1876">
        <ele>410</ele>
        <time>2018-04-13T10:19:32Z</time>
      </trkpt>
      <trkpt lat="47.54417" lon="7.1878">
        <ele>411</ele>
        <time>2018-04-13T10:19:44Z</time>
      </trkpt>
      <trkpt lat="47.54432" lon="7.18802">
        <ele>411</ele>
        <time>2018-04-13T10:19:56Z</time>
      </trkpt>
      <trkpt lat="47.54445" lon="7.18823">
        <ele>411</ele>
        <time>2018-04-13T10:20:10Z</time>
      </trkpt>
      <trkpt lat="47.54458" lon="7.18846">
        <ele>412</ele>
        <time>2018-04-13T10:20:26Z</time>
      </trkpt>
      <trkpt lat="47.54472" lon="7.18868">
        <ele>412</ele>
        <time>2018-04-13T10:20:40Z</time>
      </trkpt>
      <trkpt lat="47.54486" lon="7.18891">
        <ele>412</ele>
        <time>2018-04-13T10:20:55Z</time>
      </trkpt>
      <trkpt lat="47.54501" lon="7.18912">
        <ele>412</ele>
        <time>2018-04-13T10:21:09Z</time>
      </trkpt>
      <trkpt lat="47.54517" lon="7.18932">
        <ele>411</ele>
        <time>2018-04-13T10:21:21Z</time>
      </trkpt>
      <trkpt lat="47.54534" lon="7.18942">
        <ele>411</ele>
        <time>2018-04-13T10:21:33Z</time>
      </trkpt>
      <trkpt lat="47.54551" lon="7.18926">
        <ele>411</ele>
        <time>2018-04-13T10:21:47Z</time>
      </trkpt>
      <trkpt lat="47.54566" lon="7.18906">
        <ele>412</ele>
        <time>2018-04-13T10:22:01Z</time>
      </trkpt>
      <trkpt lat="47.5458" lon="7.18887">
        <ele>412</ele>
        <time>2018-04-13T10:22:11Z</time>
      </trkpt>
      <trkpt lat="47.54594" lon="7.18871">
        <ele>411</ele>
        <time>2018-04-13T10:22:21Z</time>
      </trkpt>
      <trkpt lat="47.54608" lon="7.18853">
        <ele>410</ele>
        <time>2018-04-13T10:22:31Z</time>
      </trkpt>
      <trkpt lat="47.54622" lon="7.18835">
        <ele>410</ele>
        <time>2018-04-13T10:22:40Z</time>
      </trkpt>
      <trkpt lat="47.54636" lon="7.18816">
        <ele>410</ele>
        <time>2018-04-13T10:22:50Z</time>
      </trkpt>
      <trkpt lat="47.54652" lon="7.18798">
        <ele>409</ele>
        <time>2018-04-13T10:23:00Z</time>
      </trkpt>
      <trkpt lat="47.54667" lon="7.18777">
        <ele>408</ele>
        <time>2018-04-13T10:23:12Z</time>
      </trkpt>
      <trkpt lat="47.54683" lon="7.18758">
        <ele>408</ele>
        <time>2018-04-13T10:23:24Z</time>
      </trkpt>
      <trkpt lat="47.54697" lon="7.18741">
        <ele>408</ele>
        <time>2018-04-13T10:23:36Z</time>
      </trkpt>
      <trkpt lat="47.54711" lon="7.18723">
        <ele>408</ele>
        <time>2018-04-13T10:23:46Z</time>
      </trkpt>
      <trkpt lat="47.54728" lon="7.1871">
        <ele>408</ele>
        <time>2018-04-13T10:23:56Z</time>
      </trkpt>
      <trkpt lat="47.5475" lon="7.18711">
        <ele>409</ele>
        <time>2018-04-13T10:24:08Z</time>
      </trkpt>
      <trkpt lat="47.54769" lon="7.18718">
        <ele>409</ele>
        <time>2018-04-13T10:24:18Z</time>
      </trkpt>
      <trkpt lat="47.54783" lon="7.18736">
        <ele>409</ele>
        <time>2018-04-13T10:24:28Z</time>
      </trkpt>
      <trkpt lat="47.54798" lon="7.18754">
        <ele>409</ele>
        <time>2018-04-13T10:24:38Z</time>
      </trkpt>
      <trkpt lat="47.54813" lon="7.18768">
        <ele>409</ele>
        <time>2018-04-13T10:24:48Z</time>
      </trkpt>
      <trkpt lat="47.5483" lon="7.18787">
        <ele>409</ele>
        <time>2018-04-13T10:25:00Z</time>
      </trkpt>
      <trkpt lat="47.54847" lon="7.18799">
        <ele>412</ele>
        <time>2018-04-13T10:25:12Z</time>
      </trkpt>
      <trkpt lat="47.54864" lon="7.18817">
        <ele>412</ele>
        <time>2018-04-13T10:25:24Z</time>
      </trkpt>
      <trkpt lat="47.54882" lon="7.18833">
        <ele>410</ele>
        <time>2018-04-13T10:25:36Z</time>
      </trkpt>
      <trkpt lat="47.54899" lon="7.18847">
        <ele>410</ele>
        <time>2018-04-13T10:25:46Z</time>
      </trkpt>
      <trkpt lat="47.54915" lon="7.18863">
        <ele>410</ele>
        <time>2018-04-13T10:25:58Z</time>
      </trkpt>
      <trkpt lat="47.54933" lon="7.18876">
        <ele>410</ele>
        <time>2018-04-13T10:26:10Z</time>
      </trkpt>
      <trkpt lat="47.54951" lon="7.18887">
        <ele>410</ele>
        <time>2018-04-13T10:26:22Z</time>
      </trkpt>
      <trkpt lat="47.54967" lon="7.18872">
        <ele>411</ele>
        <time>2018-04-13T10:26:36Z</time>
      </trkpt>
      <trkpt lat="47.54977" lon="7.1885">
        <ele>412</ele>
        <time>2018-04-13T10:26:46Z</time>
      </trkpt>
      <trkpt lat="47.5499" lon="7.18828">
        <ele>415</ele>
        <time>2018-04-13T10:26:58Z</time>
      </trkpt>
      <trkpt lat="47.55002" lon="7.18809">
        <ele>417</ele>
        <time>2018-04-13T10:27:10Z</time>
      </trkpt>
      <trkpt lat="47.55012" lon="7.18785">
        <ele>419</ele>
        <time>2018-04-13T10:27:20Z</time>
      </trkpt>
      <trkpt lat="47.55023" lon="7.18763">
        <ele>420</ele>
        <time>2018-04-13T10:27:30Z</time>
      </trkpt>
      <trkpt lat="47.55032" lon="7.18737">
        <ele>422</ele>
        <time>2018-04-13T10:27:40Z</time>
      </trkpt>
      <trkpt lat="47.55044" lon="7.18713">
        <ele>423</ele>
        <time>2018-04-13T10:27:50Z</time>
      </trkpt>
      <trkpt lat="47.55053" lon="7.1869">
        <ele>423</ele>
        <time>2018-04-13T10:28:00Z</time>
      </trkpt>
      <trkpt lat="47.55064" lon="7.18666">
        <ele>424</ele>
        <time>2018-04-13T10:28:10Z</time>
      </trkpt>
      <trkpt lat="47.55077" lon="7.18641">
        <ele>424</ele>
        <time>2018-04-13T10:28:22Z</time>
      </trkpt>
      <trkpt lat="47.55088" lon="7.18615">
        <ele>424</ele>
        <time>2018-04-13T10:28:34Z</time>
      </trkpt>
      <trkpt lat="47.55098" lon="7.18593">
        <ele>424</ele>
        <time>2018-04-13T10:28:44Z</time>
      </trkpt>
      <trkpt lat="47.55108" lon="7.1857">
        <ele>424</ele>
        <time>2018-04-13T10:28:54Z</time>
      </trkpt>
      <trkpt lat="47.55119" lon="7.18546">
        <ele>423</ele>
        <time>2018-04-13T10:29:06Z</time>
      </trkpt>
      <trkpt lat="47.55129" lon="7.18522">
        <ele>423</ele>
        <time>2018-04-13T10:29:18Z</time>
      </trkpt>
      <trkpt lat="47.55139" lon="7.18499">
        <ele>423</ele>
        <time>2018-04-13T10:29:30Z</time>
      </trkpt>
      <trkpt lat="47.55149" lon="7.18475">
        <ele>422</ele>
        <time>2018-04-13T10:29:42Z</time>
      </trkpt>
      <trkpt lat="47.55161" lon="7.18451">
        <ele>422</ele>
        <time>2018-04-13T10:29:54Z</time>
      </trkpt>
      <trkpt lat="47.55172" lon="7.18424">
        <ele>421</ele>
        <time>2018-04-13T10:30:06Z</time>
      </trkpt>
      <trkpt lat="47.55183" lon="7.184">
        <ele>420</ele>
        <time>2018-04-13T10:30:18Z</time>
      </trkpt>
      <trkpt lat="47.55192" lon="7.18376">
        <ele>420</ele>
        <time>2018-04-13T10:30:28Z</time>
      </trkpt>
      <trkpt lat="47.55203" lon="7.18353">
        <ele>420</ele>
        <time>2018-04-13T10:30:38Z</time>
      </trkpt>
      <trkpt lat="47.55215" lon="7.18329">
        <ele>419</ele>
        <time>2018-04-13T10:30:49Z</time>
      </trkpt>
      <trkpt lat="47.55224" lon="7.18306">
        <ele>419</ele>
        <time>2018-04-13T10:30:59Z</time>
      </trkpt>
      <trkpt lat="47.55236" lon="7.18281">
        <ele>418</ele>
        <time>2018-04-13T10:31:11Z</time>
      </trkpt>
      <trkpt lat="47.55245" lon="7.18256">
        <ele>417</ele>
        <time>2018-04-13T10:31:21Z</time>
      </trkpt>
      <trkpt lat="47.55254" lon="7.18232">
        <ele>415</ele>
        <time>2018-04-13T10:31:31Z</time>
      </trkpt>
      <trkpt lat="47.55266" lon="7.18204">
        <ele>414</ele>
        <time>2018-04-13T10:31:43Z</time>
      </trkpt>
      <trkpt lat="47.55277" lon="7.1818">
        <ele>414</ele>
        <time>2018-04-13T10:31:53Z</time>
      </trkpt>
      <trkpt lat="47.55288" lon="7.18155">
        <ele>414</ele>
        <time>2018-04-13T10:32:03Z</time>
      </trkpt>
      <trkpt lat="47.55299" lon="7.18131">
        <ele>414</ele>
        <time>2018-04-13T10:32:13Z</time>
      </trkpt>
      <trkpt lat="47.55308" lon="7.18107">
        <ele>414</ele>
        <time>2018-04-13T10:32:23Z</time>
      </trkpt>
      <trkpt lat="47.55316" lon="7.18079">
        <ele>415</ele>
        <time>2018-04-13T10:32:35Z</time>
      </trkpt>
      <trkpt lat="47.55325" lon="7.18054">
        <ele>415</ele>
        <time>2018-04-13T10:32:45Z</time>
      </trkpt>
      <trkpt lat="47.55336" lon="7.18026">
        <ele>413</ele>
        <time>2018-04-13T10:32:57Z</time>
      </trkpt>
      <trkpt lat="47.55347" lon="7.17997">
        <ele>414</ele>
        <time>2018-04-13T10:33:10Z</time>
      </trkpt>
      <trkpt lat="47.55356" lon="7.17971">
        <ele>413</ele>
        <time>2018-04-13T10:33:21Z</time>
      </trkpt>
      <trkpt lat="47.55366" lon="7.17944">
        <ele>412</ele>
        <time>2018-04-13T10:33:32Z</time>
      </trkpt>
      <trkpt lat="47.55374" lon="7.1792">
        <ele>412</ele>
        <time>2018-04-13T10:33:42Z</time>
      </trkpt>
      <trkpt lat="47.55382" lon="7.17896">
        <ele>412</ele>
        <time>2018-04-13T10:33:52Z</time>
      </trkpt>
      <trkpt lat="47.55391" lon="7.17871">
        <ele>411</ele>
        <time>2018-04-13T10:34:02Z</time>
      </trkpt>
      <trkpt lat="47.55401" lon="7.17848">
        <ele>411</ele>
        <time>2018-04-13T10:34:12Z</time>
      </trkpt>
      <trkpt lat="47.55412" lon="7.17824">
        <ele>410</ele>
        <time>2018-04-13T10:34:23Z</time>
      </trkpt>
      <trkpt lat="47.55423" lon="7.17796">
        <ele>408</ele>
        <time>2018-04-13T10:34:34Z</time>
      </trkpt>
      <trkpt lat="47.55431" lon="7.17768">
        <ele>408</ele>
        <time>2018-04-13T10:34:46Z</time>
      </trkpt>
      <trkpt lat="47.55441" lon="7.17741">
        <ele>409</ele>
        <time>2018-04-13T10:34:56Z</time>
      </trkpt>
      <trkpt lat="47.55451" lon="7.17717">
        <ele>408</ele>
        <time>2018-04-13T10:35:06Z</time>
      </trkpt>
      <trkpt lat="47.55462" lon="7.17689">
        <ele>408</ele>
        <time>2018-04-13T10:35:18Z</time>
      </trkpt>
      <trkpt lat="47.55472" lon="7.17665">
        <ele>408</ele>
        <time>2018-04-13T10:35:28Z</time>
      </trkpt>
      <trkpt lat="47.55481" lon="7.17641">
        <ele>409</ele>
        <time>2018-04-13T10:35:38Z</time>
      </trkpt>
      <trkpt lat="47.55489" lon="7.17613">
        <ele>409</ele>
        <time>2018-04-13T10:35:50Z</time>
      </trkpt>
      <trkpt lat="47.55496" lon="7.17587">
        <ele>409</ele>
        <time>2018-04-13T10:36:00Z</time>
      </trkpt>
      <trkpt lat="47.55502" lon="7.17559">
        <ele>409</ele>
        <time>2018-04-13T10:36:12Z</time>
      </trkpt>
      <trkpt lat="47.55504" lon="7.17531">
        <ele>410</ele>
        <time>2018-04-13T10:36:22Z</time>
      </trkpt>
      <trkpt lat="47.55508" lon="7.17504">
        <ele>411</ele>
        <time>2018-04-13T10:36:32Z</time>
      </trkpt>
      <trkpt lat="47.55519" lon="7.17479">
        <ele>409</ele>
        <time>2018-04-13T10:36:44Z</time>
      </trkpt>
      <trkpt lat="47.55536" lon="7.17462">
        <ele>408</ele>
        <time>2018-04-13T10:36:56Z</time>
      </trkpt>
      <trkpt lat="47.55551" lon="7.17443">
        <ele>407</ele>
        <time>2018-04-13T10:37:06Z</time>
      </trkpt>
      <trkpt lat="47.55566" lon="7.17423">
        <ele>405</ele>
        <time>2018-04-13T10:37:18Z</time>
      </trkpt>
      <trkpt lat="47.55582" lon="7.17403">
        <ele>402</ele>
        <time>2018-04-13T10:37:30Z</time>
      </trkpt>
      <trkpt lat="47.55597" lon="7.17382">
        <ele>395</ele>
        <time>2018-04-13T10:37:42Z</time>
      </trkpt>
      <trkpt lat="47.55616" lon="7.17374">
        <ele>393</ele>
        <time>2018-04-13T10:37:54Z</time>
      </trkpt>
      <trkpt lat="47.55636" lon="7.17366">
        <ele>392</ele>
        <time>2018-04-13T10:38:04Z</time>
      </trkpt>
      <trkpt lat="47.55656" lon="7.17358">
        <ele>390</ele>
        <time>2018-04-13T10:38:14Z</time>
      </trkpt>
      <trkpt lat="47.55675" lon="7.1735">
        <ele>385</ele>
        <time>2018-04-13T10:38:26Z</time>
      </trkpt>
      <trkpt lat="47.55696" lon="7.17344">
        <ele>384</ele>
        <time>2018-04-13T10:38:36Z</time>
      </trkpt>
      <trkpt lat="47.55714" lon="7.17338">
        <ele>383</ele>
        <time>2018-04-13T10:38:46Z</time>
      </trkpt>
      <trkpt lat="47.55731" lon="7.17328">
        <ele>382</ele>
        <time>2018-04-13T10:38:56Z</time>
      </trkpt>
      <trkpt lat="47.5573" lon="7.17299">
        <ele>382</ele>
        <time>2018-04-13T10:39:06Z</time>
      </trkpt>
      <trkpt lat="47.55725" lon="7.17271">
        <ele>382</ele>
        <time>2018-04-13T10:39:16Z</time>
      </trkpt>
      <trkpt lat="47.55717" lon="7.17243">
        <ele>382</ele>
        <time>2018-04-13T10:39:26Z</time>
      </trkpt>
      <trkpt lat="47.55709" lon="7.17219">
        <ele>383</ele>
        <time>2018-04-13T10:39:36Z</time>
      </trkpt>
      <trkpt lat="47.55701" lon="7.17194">
        <ele>383</ele>
        <time>2018-04-13T10:39:46Z</time>
      </trkpt>
      <trkpt lat="47.55696" lon="7.17168">
        <ele>384</ele>
        <time>2018-04-13T10:39:56Z</time>
      </trkpt>
      <trkpt lat="47.55688" lon="7.17138">
        <ele>383</ele>
        <time>2018-04-13T10:40:08Z</time>
      </trkpt>
      <trkpt lat="47.55683" lon="7.17112">
        <ele>384</ele>
        <time>2018-04-13T10:40:18Z</time>
      </trkpt>
      <trkpt lat="47.55677" lon="7.17086">
        <ele>385</ele>
        <time>2018-04-13T10:40:28Z</time>
      </trkpt>
      <trkpt lat="47.55672" lon="7.17058">
        <ele>384</ele>
        <time>2018-04-13T10:40:38Z</time>
      </trkpt>
      <trkpt lat="47.5567" lon="7.1703">
        <ele>384</ele>
        <time>2018-04-13T10:40:48Z</time>
      </trkpt>
      <trkpt lat="47.55666" lon="7.17004">
        <ele>387</ele>
        <time>2018-04-13T10:40:58Z</time>
      </trkpt>
      <trkpt lat="47.55664" lon="7.16977">
        <ele>388</ele>
        <time>2018-04-13T10:41:08Z</time>
      </trkpt>
      <trkpt lat="47.55661" lon="7.16949">
        <ele>388</ele>
        <time>2018-04-13T10:41:18Z</time>
      </trkpt>
      <trkpt lat="47.55657" lon="7.16922">
        <ele>387</ele>
        <time>2018-04-13T10:41:28Z</time>
      </trkpt>
      <trkpt lat="47.55654" lon="7.16896">
        <ele>387</ele>
        <time>2018-04-13T10:41:38Z</time>
      </trkpt>
      <trkpt lat="47.5565" lon="7.16869">
        <ele>387</ele>
        <time>2018-04-13T10:41:48Z</time>
      </trkpt>
      <trkpt lat="47.55646" lon="7.16843">
        <ele>386</ele>
        <time>2018-04-13T10:41:58Z</time>
      </trkpt>
      <trkpt lat="47.5564" lon="7.16814">
        <ele>385</ele>
        <time>2018-04-13T10:42:08Z</time>
      </trkpt>
      <trkpt lat="47.55636" lon="7.16788">
        <ele>385</ele>
        <time>2018-04-13T10:42:18Z</time>
      </trkpt>
      <trkpt lat="47.55631" lon="7.16759">
        <ele>384</ele>
        <time>2018-04-13T10:42:28Z</time>
      </trkpt>
      <trkpt lat="47.55627" lon="7.16732">
        <ele>382</ele>
        <time>2018-04-13T10:42:38Z</time>
      </trkpt>
      <trkpt lat="47.55623" lon="7.16701">
        <ele>381</ele>
        <time>2018-04-13T10:42:49Z</time>
      </trkpt>
      <trkpt lat="47.5562" lon="7.16672">
        <ele>381</ele>
        <time>2018-04-13T10:42:59Z</time>
      </trkpt>
      <trkpt lat="47.55615" lon="7.16644">
        <ele>378</ele>
        <time>2018-04-13T10:43:09Z</time>
      </trkpt>
      <trkpt lat="47.5561" lon="7.16618">
        <ele>377</ele>
        <time>2018-04-13T10:43:19Z</time>
      </trkpt>
      <trkpt lat="47.55604" lon="7.16588">
        <ele>377</ele>
        <time>2018-04-13T10:43:31Z</time>
      </trkpt>
      <trkpt lat="47.55596" lon="7.16559">
        <ele>374</ele>
        <time>2018-04-13T10:43:43Z</time>
      </trkpt>
      <trkpt lat="47.55589" lon="7.16533">
        <ele>373</ele>
        <time>2018-04-13T10:43:53Z</time>
      </trkpt>
      <trkpt lat="47.55581" lon="7.16508">
        <ele>372</ele>
        <time>2018-04-13T10:44:03Z</time>
      </trkpt>
      <trkpt lat="47.55577" lon="7.16482">
        <ele>370</ele>
        <time>2018-04-13T10:44:13Z</time>
      </trkpt>
      <trkpt lat="47.55579" lon="7.16453">
        <ele>369</ele>
        <time>2018-04-13T10:44:25Z</time>
      </trkpt>
      <trkpt lat="47.55591" lon="7.16428">
        <ele>368</ele>
        <time>2018-04-13T10:44:37Z</time>
      </trkpt>
      <trkpt lat="47.55599" lon="7.16404">
        <ele>366</ele>
        <time>2018-04-13T10:44:47Z</time>
      </trkpt>
      <trkpt lat="47.55603" lon="7.16375">
        <ele>365</ele>
        <time>2018-04-13T10:44:57Z</time>
      </trkpt>
      <trkpt lat="47.556" lon="7.16343">
        <ele>365</ele>
        <time>2018-04-13T10:45:09Z</time>
      </trkpt>
      <trkpt lat="47.55591" lon="7.16319">
        <ele>363</ele>
        <time>2018-04-13T10:45:19Z</time>
      </trkpt>
      <trkpt lat="47.55576" lon="7.16301">
        <ele>363</ele>
        <time>2018-04-13T10:45:31Z</time>
      </trkpt>
      <trkpt lat="47.55557" lon="7.16289">
        <ele>362</ele>
        <time>2018-04-13T10:45:41Z</time>
      </trkpt>
      <trkpt lat="47.55533" lon="7.16278">
        <ele>362</ele>
        <time>2018-04-13T10:45:51Z</time>
      </trkpt>
      <trkpt lat="47.55513" lon="7.16268">
        <ele>361</ele>
        <time>2018-04-13T10:45:59Z</time>
      </trkpt>
      <trkpt lat="47.55497" lon="7.16251">
        <ele>360</ele>
        <time>2018-04-13T10:46:09Z</time>
      </trkpt>
      <trkpt lat="47.55486" lon="7.1623">
        <ele>358</ele>
        <time>2018-04-13T10:46:21Z</time>
      </trkpt>
      <trkpt lat="47.55475" lon="7.16202">
        <ele>357</ele>
        <time>2018-04-13T10:46:33Z</time>
      </trkpt>
      <trkpt lat="47.55464" lon="7.1618">
        <ele>356</ele>
        <time>2018-04-13T10:46:43Z</time>
      </trkpt>
      <trkpt lat="47.55468" lon="7.16208">
        <ele>357</ele>
        <time>2018-04-13T10:47:05Z</time>
      </trkpt>
      <trkpt lat="47.5548" lon="7.16232">
        <ele>358</ele>
        <time>2018-04-13T10:47:15Z</time>
      </trkpt>
      <trkpt lat="47.55488" lon="7.16259">
        <ele>360</ele>
        <time>2018-04-13T10:47:27Z</time>
      </trkpt>
      <trkpt lat="47.55469" lon="7.16272">
        <ele>361</ele>
        <time>2018-04-13T10:47:41Z</time>
      </trkpt>
      <trkpt lat="47.55449" lon="7.16279">
        <ele>361</ele>
        <time>2018-04-13T10:47:55Z</time>
      </trkpt>
      <trkpt lat="47.55431" lon="7.16286">
        <ele>361</ele>
        <time>2018-04-13T10:48:05Z</time>
      </trkpt>
      <trkpt lat="47.55412" lon="7.16291">
        <ele>360</ele>
        <time>2018-04-13T10:48:15Z</time>
      </trkpt>
      <trkpt lat="47.55391" lon="7.16296">
        <ele>360</ele>
        <time>2018-04-13T10:48:25Z</time>
      </trkpt>
      <trkpt lat="47.55371" lon="7.163">
        <ele>360</ele>
        <time>2018-04-13T10:48:35Z</time>
      </trkpt>
      <trkpt lat="47.55353" lon="7.16303">
        <ele>360</ele>
        <time>2018-04-13T10:48:45Z</time>
      </trkpt>
      <trkpt lat="47.55333" lon="7.16306">
        <ele>360</ele>
        <time>2018-04-13T10:48:55Z</time>
      </trkpt>
      <trkpt lat="47.55315" lon="7.16311">
        <ele>360</ele>
        <time>2018-04-13T10:49:05Z</time>
      </trkpt>
      <trkpt lat="47.55296" lon="7.16317">
        <ele>359</ele>
        <time>2018-04-13T10:49:15Z</time>
      </trkpt>
      <trkpt lat="47.55279" lon="7.16328">
        <ele>359</ele>
        <time>2018-04-13T10:49:25Z</time>
      </trkpt>
      <trkpt lat="47.5527" lon="7.16353">
        <ele>362</ele>
        <time>2018-04-13T10:49:35Z</time>
      </trkpt>
      <trkpt lat="47.55266" lon="7.1638">
        <ele>363</ele>
        <time>2018-04-13T10:49:45Z</time>
      </trkpt>
      <trkpt lat="47.55255" lon="7.16403">
        <ele>365</ele>
        <time>2018-04-13T10:49:55Z</time>
      </trkpt>
      <trkpt lat="47.55238" lon="7.16415">
        <ele>365</ele>
        <time>2018-04-13T10:50:05Z</time>
      </trkpt>
      <trkpt lat="47.55219" lon="7.16417">
        <ele>368</ele>
        <time>2018-04-13T10:50:15Z</time>
      </trkpt>
      <trkpt lat="47.552" lon="7.16421">
        <ele>368</ele>
        <time>2018-04-13T10:50:27Z</time>
      </trkpt>
      <trkpt lat="47.55181" lon="7.1642">
        <ele>368</ele>
        <time>2018-04-13T10:50:38Z</time>
      </trkpt>
      <trkpt lat="47.55162" lon="7.16422">
        <ele>368</ele>
        <time>2018-04-13T10:50:50Z</time>
      </trkpt>
      <trkpt lat="47.55141" lon="7.16424">
        <ele>369</ele>
        <time>2018-04-13T10:51:02Z</time>
      </trkpt>
      <trkpt lat="47.55121" lon="7.1643">
        <ele>369</ele>
        <time>2018-04-13T10:51:14Z</time>
      </trkpt>
      <trkpt lat="47.551" lon="7.16434">
        <ele>368</ele>
        <time>2018-04-13T10:51:26Z</time>
      </trkpt>
      <trkpt lat="47.55079" lon="7.16437">
        <ele>368</ele>
        <time>2018-04-13T10:51:36Z</time>
      </trkpt>
      <trkpt lat="47.5506" lon="7.16441">
        <ele>369</ele>
        <time>2018-04-13T10:51:46Z</time>
      </trkpt>
      <trkpt lat="47.55038" lon="7.16444">
        <ele>369</ele>
        <time>2018-04-13T10:51:58Z</time>
      </trkpt>
      <trkpt lat="47.55018" lon="7.16448">
        <ele>369</ele>
        <time>2018-04-13T10:52:12Z</time>
      </trkpt>
      <trkpt lat="47.55" lon="7.16454">
        <ele>369</ele>
        <time>2018-04-13T10:52:22Z</time>
      </trkpt>
      <trkpt lat="47.54982" lon="7.16457">
        <ele>369</ele>
        <time>2018-04-13T10:52:32Z</time>
      </trkpt>
      <trkpt lat="47.54964" lon="7.16465">
        <ele>370</ele>
        <time>2018-04-13T10:52:42Z</time>
      </trkpt>
      <trkpt lat="47.54946" lon="7.16472">
        <ele>370</ele>
        <time>2018-04-13T10:52:52Z</time>
      </trkpt>
      <trkpt lat="47.54929" lon="7.16481">
        <ele>371</ele>
        <time>2018-04-13T10:53:02Z</time>
      </trkpt>
      <trkpt lat="47.5491" lon="7.16488">
        <ele>371</ele>
        <time>2018-04-13T10:53:10Z</time>
      </trkpt>
      <trkpt lat="47.54892" lon="7.165">
        <ele>370</ele>
        <time>2018-04-13T10:53:20Z</time>
      </trkpt>
      <trkpt lat="47.54874" lon="7.1651">
        <ele>373</ele>
        <time>2018-04-13T10:53:30Z</time>
      </trkpt>
      <trkpt lat="47.54858" lon="7.16525">
        <ele>373</ele>
        <time>2018-04-13T10:53:40Z</time>
      </trkpt>
      <trkpt lat="47.5484" lon="7.1654">
        <ele>373</ele>
        <time>2018-04-13T10:53:52Z</time>
      </trkpt>
      <trkpt lat="47.5482" lon="7.16553">
        <ele>373</ele>
        <time>2018-04-13T10:54:05Z</time>
      </trkpt>
      <trkpt lat="47.54803" lon="7.1657">
        <ele>373</ele>
        <time>2018-04-13T10:54:19Z</time>
      </trkpt>
      <trkpt lat="47.54785" lon="7.16585">
        <ele>378</ele>
        <time>2018-04-13T10:54:29Z</time>
      </trkpt>
      <trkpt lat="47.5477" lon="7.16601">
        <ele>378</ele>
        <time>2018-04-13T10:54:39Z</time>
      </trkpt>
      <trkpt lat="47.54754" lon="7.16618">
        <ele>379</ele>
        <time>2018-04-13T10:54:51Z</time>
      </trkpt>
      <trkpt lat="47.54742" lon="7.16642">
        <ele>376</ele>
        <time>2018-04-13T10:54:57Z</time>
      </trkpt>
      <trkpt lat="47.54731" lon="7.1667">
        <ele>380</ele>
        <time>2018-04-13T10:55:07Z</time>
      </trkpt>
      <trkpt lat="47.54719" lon="7.16694">
        <ele>379</ele>
        <time>2018-04-13T10:55:18Z</time>
      </trkpt>
      <trkpt lat="47.54702" lon="7.16712">
        <ele>379</ele>
        <time>2018-04-13T10:55:30Z</time>
      </trkpt>
      <trkpt lat="47.54682" lon="7.16725">
        <ele>378</ele>
        <time>2018-04-13T10:55:42Z</time>
      </trkpt>
      <trkpt lat="47.54667" lon="7.16743">
        <ele>377</ele>
        <time>2018-04-13T10:55:50Z</time>
      </trkpt>
      <trkpt lat="47.54655" lon="7.16763">
        <ele>376</ele>
        <time>2018-04-13T10:56:00Z</time>
      </trkpt>
      <trkpt lat="47.54638" lon="7.16782">
        <ele>375</ele>
        <time>2018-04-13T10:56:14Z</time>
      </trkpt>
      <trkpt lat="47.54623" lon="7.16802">
        <ele>375</ele>
        <time>2018-04-13T10:56:24Z</time>
      </trkpt>
      <trkpt lat="47.54607" lon="7.16822">
        <ele>376</ele>
        <time>2018-04-13T10:56:34Z</time>
      </trkpt>
      <trkpt lat="47.54592" lon="7.16839">
        <ele>377</ele>
        <time>2018-04-13T10:56:44Z</time>
      </trkpt>
      <trkpt lat="47.54578" lon="7.16862">
        <ele>377</ele>
        <time>2018-04-13T10:56:56Z</time>
      </trkpt>
      <trkpt lat="47.54561" lon="7.16881">
        <ele>377</ele>
        <time>2018-04-13T10:57:08Z</time>
      </trkpt>
      <trkpt lat="47.54544" lon="7.16897">
        <ele>377</ele>
        <time>2018-04-13T10:57:18Z</time>
      </trkpt>
      <trkpt lat="47.54527" lon="7.16915">
        <ele>377</ele>
        <time>2018-04-13T10:57:28Z</time>
      </trkpt>
      <trkpt lat="47.54511" lon="7.16933">
        <ele>379</ele>
        <time>2018-04-13T10:57:40Z</time>
      </trkpt>
      <trkpt lat="47.54498" lon="7.16959">
        <ele>376</ele>
        <time>2018-04-13T10:57:50Z</time>
      </trkpt>
      <trkpt lat="47.54484" lon="7.16976">
        <ele>376</ele>
        <time>2018-04-13T10:58:00Z</time>
      </trkpt>
      <trkpt lat="47.54468" lon="7.16996">
        <ele>376</ele>
        <time>2018-04-13T10:58:11Z</time>
      </trkpt>
      <trkpt lat="47.54453" lon="7.17019">
        <ele>377</ele>
        <time>2018-04-13T10:58:21Z</time>
      </trkpt>
      <trkpt lat="47.5444" lon="7.17043">
        <ele>376</ele>
        <time>2018-04-13T10:58:31Z</time>
      </trkpt>
      <trkpt lat="47.54427" lon="7.17064">
        <ele>376</ele>
        <time>2018-04-13T10:58:41Z</time>
      </trkpt>
      <trkpt lat="47.54418" lon="7.1709">
        <ele>376</ele>
        <time>2018-04-13T10:58:51Z</time>
      </trkpt>
      <trkpt lat="47.54405" lon="7.17112">
        <ele>375</ele>
        <time>2018-04-13T10:59:01Z</time>
      </trkpt>
      <trkpt lat="47.5439" lon="7.17132">
        <ele>375</ele>
        <time>2018-04-13T10:59:15Z</time>
      </trkpt>
      <trkpt lat="47.54376" lon="7.17153">
        <ele>376</ele>
        <time>2018-04-13T10:59:25Z</time>
      </trkpt>
      <trkpt lat="47.54364" lon="7.17175">
        <ele>379</ele>
        <time>2018-04-13T10:59:33Z</time>
      </trkpt>
      <trkpt lat="47.54351" lon="7.17196">
        <ele>380</ele>
        <time>2018-04-13T10:59:43Z</time>
      </trkpt>
      <trkpt lat="47.54337" lon="7.17217">
        <ele>380</ele>
        <time>2018-04-13T10:59:53Z</time>
      </trkpt>
      <trkpt lat="47.54324" lon="7.17235">
        <ele>378</ele>
        <time>2018-04-13T11:00:03Z</time>
      </trkpt>
      <trkpt lat="47.54312" lon="7.17255">
        <ele>381</ele>
        <time>2018-04-13T11:00:15Z</time>
      </trkpt>
      <trkpt lat="47.54302" lon="7.17279">
        <ele>381</ele>
        <time>2018-04-13T11:00:25Z</time>
      </trkpt>
      <trkpt lat="47.54288" lon="7.17299">
        <ele>381</ele>
        <time>2018-04-13T11:00:35Z</time>
      </trkpt>
      <trkpt lat="47.54276" lon="7.17322">
        <ele>380</ele>
        <time>2018-04-13T11:00:45Z</time>
      </trkpt>
      <trkpt lat="47.54265" lon="7.17346">
        <ele>384</ele>
        <time>2018-04-13T11:00:55Z</time>
      </trkpt>
      <trkpt lat="47.5425" lon="7.17371">
        <ele>386</ele>
        <time>2018-04-13T11:01:05Z</time>
      </trkpt>
      <trkpt lat="47.54239" lon="7.17392">
        <ele>379</ele>
        <time>2018-04-13T11:01:15Z</time>
      </trkpt>
      <trkpt lat="47.54224" lon="7.17414">
        <ele>378</ele>
        <time>2018-04-13T11:01:25Z</time>
      </trkpt>
      <trkpt lat="47.5421" lon="7.17436">
        <ele>381</ele>
        <time>2018-04-13T11:01:35Z</time>
      </trkpt>
      <trkpt lat="47.54197" lon="7.17456">
        <ele>380</ele>
        <time>2018-04-13T11:01:45Z</time>
      </trkpt>
      <trkpt lat="47.54183" lon="7.17479">
        <ele>379</ele>
        <time>2018-04-13T11:01:55Z</time>
      </trkpt>
      <trkpt lat="47.5417" lon="7.17498">
        <ele>376</ele>
        <time>2018-04-13T11:02:05Z</time>
      </trkpt>
      <trkpt lat="47.54156" lon="7.1752">
        <ele>375</ele>
        <time>2018-04-13T11:02:15Z</time>
      </trkpt>
      <trkpt lat="47.54144" lon="7.1754">
        <ele>375</ele>
        <time>2018-04-13T11:02:25Z</time>
      </trkpt>
      <trkpt lat="47.54135" lon="7.17566">
        <ele>376</ele>
        <time>2018-04-13T11:02:35Z</time>
      </trkpt>
      <trkpt lat="47.54121" lon="7.17584">
        <ele>378</ele>
        <time>2018-04-13T11:02:45Z</time>
      </trkpt>
      <trkpt lat="47.5411" lon="7.17611">
        <ele>378</ele>
        <time>2018-04-13T11:02:55Z</time>
      </trkpt>
      <trkpt lat="47.54101" lon="7.17636">
        <ele>378</ele>
        <time>2018-04-13T11:03:05Z</time>
      </trkpt>
      <trkpt lat="47.54087" lon="7.1766">
        <ele>378</ele>
        <time>2018-04-13T11:03:17Z</time>
      </trkpt>
      <trkpt lat="47.54067" lon="7.17666">
        <ele>375</ele>
        <time>2018-04-13T11:03:33Z</time>
      </trkpt>
      <trkpt lat="47.54048" lon="7.17657">
        <ele>374</ele>
        <time>2018-04-13T11:03:46Z</time>
      </trkpt>
      <trkpt lat="47.54034" lon="7.17639">
        <ele>374</ele>
        <time>2018-04-13T11:03:56Z</time>
      </trkpt>
      <trkpt lat="47.54019" lon="7.17621">
        <ele>373</ele>
        <time>2018-04-13T11:04:06Z</time>
      </trkpt>
      <trkpt lat="47.54005" lon="7.176">
        <ele>373</ele>
        <time>2018-04-13T11:04:16Z</time>
      </trkpt>
      <trkpt lat="47.53992" lon="7.17582">
        <ele>372</ele>
        <time>2018-04-13T11:04:24Z</time>
      </trkpt>
      <trkpt lat="47.53979" lon="7.17562">
        <ele>372</ele>
        <time>2018-04-13T11:04:34Z</time>
      </trkpt>
      <trkpt lat="47.53965" lon="7.17539">
        <ele>371</ele>
        <time>2018-04-13T11:04:46Z</time>
      </trkpt>
      <trkpt lat="47.53952" lon="7.17519">
        <ele>371</ele>
        <time>2018-04-13T11:04:58Z</time>
      </trkpt>
      <trkpt lat="47.53937" lon="7.17497">
        <ele>371</ele>
        <time>2018-04-13T11:05:08Z</time>
      </trkpt>
      <trkpt lat="47.53926" lon="7.17469">
        <ele>371</ele>
        <time>2018-04-13T11:05:18Z</time>
      </trkpt>
      <trkpt lat="47.53916" lon="7.17446">
        <ele>373</ele>
        <time>2018-04-13T11:05:28Z</time>
      </trkpt>
      <trkpt lat="47.53903" lon="7.17422">
        <ele>372</ele>
        <time>2018-04-13T11:05:38Z</time>
      </trkpt>
      <trkpt lat="47.5389" lon="7.17397">
        <ele>373</ele>
        <time>2018-04-13T11:05:50Z</time>
      </trkpt>
      <trkpt lat="47.53873" lon="7.17385">
        <ele>374</ele>
        <time>2018-04-13T11:06:00Z</time>
      </trkpt>
      <trkpt lat="47.53879" lon="7.17354">
        <ele>373</ele>
        <time>2018-04-13T11:06:14Z</time>
      </trkpt>
      <trkpt lat="47.53887" lon="7.17329">
        <ele>374</ele>
        <time>2018-04-13T11:06:24Z</time>
      </trkpt>
      <trkpt lat="47.539" lon="7.17304">
        <ele>374</ele>
        <time>2018-04-13T11:06:36Z</time>
      </trkpt>
      <trkpt lat="47.53911" lon="7.17281">
        <ele>374</ele>
        <time>2018-04-13T11:06:46Z</time>
      </trkpt>
      <trkpt lat="47.53923" lon="7.17257">
        <ele>372</ele>
        <time>2018-04-13T11:06:58Z</time>
      </trkpt>
      <trkpt lat="47.53936" lon="7.17232">
        <ele>373</ele>
        <time>2018-04-13T11:07:08Z</time>
      </trkpt>
      <trkpt lat="47.53954" lon="7.1723">
        <ele>373</ele>
        <time>2018-04-13T11:07:18Z</time>
      </trkpt>
      <trkpt lat="47.53975" lon="7.17237">
        <ele>372</ele>
        <time>2018-04-13T11:07:29Z</time>
      </trkpt>
      <trkpt lat="47.53993" lon="7.17249">
        <ele>371</ele>
        <time>2018-04-13T11:07:39Z</time>
      </trkpt>
      <trkpt lat="47.5401" lon="7.17236">
        <ele>370</ele>
        <time>2018-04-13T11:07:51Z</time>
      </trkpt>
      <trkpt lat="47.54026" lon="7.17217">
        <ele>370</ele>
        <time>2018-04-13T11:08:03Z</time>
      </trkpt>
      <trkpt lat="47.54039" lon="7.17196">
        <ele>370</ele>
        <time>2018-04-13T11:08:15Z</time>
      </trkpt>
      <trkpt lat="47.5405" lon="7.17171">
        <ele>370</ele>
        <time>2018-04-13T11:08:25Z</time>
      </trkpt>
      <trkpt lat="47.5406" lon="7.17144">
        <ele>369</ele>
        <time>2018-04-13T11:08:35Z</time>
      </trkpt>
      <trkpt lat="47.54069" lon="7.1712">
        <ele>369</ele>
        <time>2018-04-13T11:08:45Z</time>
      </trkpt>
      <trkpt lat="47.54087" lon="7.17113">
        <ele>367</ele>
        <time>2018-04-13T11:08:57Z</time>
      </trkpt>
      <trkpt lat="47.54105" lon="7.171">
        <ele>367</ele>
        <time>2018-04-13T11:09:09Z</time>
      </trkpt>
    </trkseg>
  </trk>
</gpx>